Crustaceo — CURE8 — position and weather

sailwx.info

Track history (hours):
 
Tides and Currents Weather Stations Pressure Air Temp Water Temp Dewpoint Dewpoint Depression Visibility Wind Speed Wind Dir Waves Ship Positions

Crustaceo

Last reported at 2017-Dec-15 15:50 UTC. Time now 2017-Dec-16 18:50 UTC.
Position N 38°07' W 009°23'.

Length 23 m.

Type: Fishing. MMSI: 204263000.

Date/timePositionNaut miles runAvg speedWind from/ knotsBaromVisibWave heightAir tempDewpointWater temp
2017-Dec-15 15:50N 38°07' W 009°23'1 3.1
2017-Dec-15 15:24N 38°06' W 009°24'17 1.2
2017-Dec-15 01:00N 38°00' W 009°04'4 7.8
2017-Dec-15 00:30N 37°59' W 008°60'9 1.5
2017-Dec-14 18:30N 37°59' W 009°11'4 8.3
2017-Dec-14 18:00N 37°59' W 009°16'12 0.2
2017-Dec-12 17:10N 38°11' W 009°19'1 8.2
2017-Dec-12 17:00N 38°12' W 009°18'4 8.1
2017-Dec-12 16:29N 38°16' W 009°15'4 7.8
2017-Dec-12 15:59N 38°19' W 009°12'8 7.6
2017-Dec-12 14:53N 38°26' W 009°06'1 1.3
2017-Dec-12 14:28N 38°26' W 009°07'0 0.0
2017-Dec-12 14:00N 38°26' W 009°07'0 0.0
2017-Dec-12 13:30N 38°26' W 009°07'0 0.0
2017-Dec-12 12:59N 38°26' W 009°07'0 0.0
2017-Dec-12 12:28N 38°26' W 009°07'0 0.0
2017-Dec-12 12:00N 38°26' W 009°07'0 0.0
2017-Dec-12 11:28N 38°26' W 009°07'0 0.0
2017-Dec-12 11:00N 38°26' W 009°07'0 0.0
2017-Dec-12 10:30N 38°26' W 009°07'0 0.0
2017-Dec-12 10:00N 38°26' W 009°07'0 0.0
2017-Dec-12 09:30N 38°26' W 009°07'0 0.0
2017-Dec-12 08:37N 38°26' W 009°07'0 0.0
2017-Dec-12 08:25N 38°26' W 009°07'0 0.0
2017-Dec-12 08:00N 38°26' W 009°07'0 0.0
2017-Dec-12 07:29N 38°26' W 009°07'0 0.0
2017-Dec-12 07:00N 38°26' W 009°07'0 0.0
2017-Dec-12 06:29N 38°26' W 009°07'0 0.0
2017-Dec-12 05:54N 38°26' W 009°07'0 0.0
2017-Dec-12 05:30N 38°26' W 009°07'0 0.0
2017-Dec-12 04:59N 38°26' W 009°07'0 0.0
2017-Dec-12 04:26N 38°26' W 009°07'0 0.0
2017-Dec-12 03:57N 38°26' W 009°07'0 0.0
2017-Dec-12 03:30N 38°26' W 009°07'0 0.0
2017-Dec-12 02:59N 38°26' W 009°07'0 0.0
2017-Dec-12 02:29N 38°26' W 009°07'0 0.0
2017-Dec-12 01:56N 38°26' W 009°07'0 0.0
2017-Dec-12 01:30N 38°26' W 009°07'0 0.0
2017-Dec-12 01:00N 38°26' W 009°07'0 0.0
2017-Dec-12 00:30N 38°26' W 009°07'0 0.0
2017-Dec-11 23:59N 38°26' W 009°07'0 0.0
2017-Dec-11 23:28N 38°26' W 009°07'0 0.0
2017-Dec-11 23:00N 38°26' W 009°07'0 0.0
2017-Dec-11 22:30N 38°26' W 009°07'0 0.0
2017-Dec-11 22:00N 38°26' W 009°07'0 0.0
2017-Dec-11 21:28N 38°26' W 009°07'0 0.0
2017-Dec-11 20:59N 38°26' W 009°07'0 0.0
2017-Dec-11 20:29N 38°26' W 009°07'0 0.0
2017-Dec-11 20:00N 38°26' W 009°07'0 0.0
2017-Dec-11 19:30N 38°26' W 009°07'0 0.0
2017-Dec-11 19:00N 38°26' W 009°07'0 0.0
2017-Dec-11 18:30N 38°26' W 009°07'0 0.0
2017-Dec-11 18:00N 38°26' W 009°07'0 0.0
2017-Dec-11 17:29N 38°26' W 009°07'0 0.0
2017-Dec-11 17:00N 38°26' W 009°07'0 0.0
2017-Dec-11 16:27N 38°26' W 009°07'0 0.0
2017-Dec-11 15:59N 38°26' W 009°07'0 0.0
2017-Dec-11 15:30N 38°26' W 009°07'0 0.0
2017-Dec-11 15:00N 38°26' W 009°07'0 0.0
2017-Dec-11 14:30N 38°26' W 009°07'0 0.0
2017-Dec-11 13:59N 38°26' W 009°07'0 0.0
2017-Dec-11 13:30N 38°26' W 009°07'0 0.0
2017-Dec-11 13:00N 38°26' W 009°07'0 0.0
2017-Dec-11 12:30N 38°26' W 009°07'0 0.0
2017-Dec-11 12:00N 38°26' W 009°07'0 0.0
2017-Dec-11 11:30N 38°26' W 009°07'0 0.0
2017-Dec-11 11:00N 38°26' W 009°07'0 0.0
2017-Dec-11 10:30N 38°26' W 009°07'0 0.0
2017-Dec-11 09:59N 38°26' W 009°07'0 0.0
2017-Dec-11 09:30N 38°26' W 009°07'0 0.0
2017-Dec-11 09:00N 38°26' W 009°07'0 0.0
2017-Dec-11 08:29N 38°26' W 009°07'0 0.0
2017-Dec-11 08:00N 38°26' W 009°07'0 0.0
2017-Dec-11 07:25N 38°26' W 009°07'0 0.0
2017-Dec-11 07:00N 38°26' W 009°07'0 0.0
2017-Dec-11 06:30N 38°26' W 009°07'0 0.0
2017-Dec-11 06:00N 38°26' W 009°07'0 0.0
2017-Dec-11 05:30N 38°26' W 009°07'0 0.0
2017-Dec-11 04:59N 38°26' W 009°07'0 0.0
2017-Dec-11 04:25N 38°26' W 009°07'0 0.0
2017-Dec-11 04:00N 38°26' W 009°07'0 0.0
2017-Dec-11 03:30N 38°26' W 009°07'0 0.0
2017-Dec-11 03:00N 38°26' W 009°07'0 0.0
2017-Dec-11 02:30N 38°26' W 009°07'0 0.0
2017-Dec-11 01:58N 38°26' W 009°07'0 0.0
2017-Dec-11 01:30N 38°26' W 009°07'0 0.0
2017-Dec-11 00:56N 38°26' W 009°07'0 0.0
2017-Dec-11 00:24N 38°26' W 009°07'0 0.0
2017-Dec-11 00:00N 38°26' W 009°07'0 0.0
2017-Dec-10 23:26N 38°26' W 009°07'0 0.0
2017-Dec-10 22:06N 38°26' W 009°07'0 0.0
2017-Dec-10 21:57N 38°26' W 009°07'0 0.0
2017-Dec-10 17:25N 38°26' W 009°07'0 0.0
2017-Dec-10 16:57N 38°26' W 009°07'0 0.0
2017-Dec-10 16:23N 38°26' W 009°07'0 0.0
2017-Dec-10 15:54N 38°26' W 009°07'0 0.0
2017-Dec-10 15:30N 38°26' W 009°07'0 0.0
2017-Dec-10 14:13N 38°26' W 009°07'0 0.5
2017-Dec-10 14:00N 38°26' W 009°07'0 0.0
2017-Dec-10 13:30N 38°26' W 009°07'0 0.4
2017-Dec-10 13:00N 38°26' W 009°07'7 7.8
2017-Dec-10 12:09N 38°21' W 009°11'2 8.1
2017-Dec-10 11:57N 38°19' W 009°12'6 7.9
2017-Dec-10 11:14N 38°15' W 009°16'2 7.7
2017-Dec-10 11:00N 38°13' W 009°17'16 0.4
2017-Dec-08 17:47N 38°24' W 009°33'2 7.2
2017-Dec-08 17:30N 38°25' W 009°34'4 8.5
2017-Dec-08 16:59N 38°29' W 009°36'4 8.6
2017-Dec-08 16:30N 38°33' W 009°38'3 5.1
2017-Dec-08 16:00N 38°35' W 009°40'1 1.9
2017-Dec-08 15:30N 38°36' W 009°39'2 3.2
2017-Dec-08 15:00N 38°38' W 009°39'3 5.8
2017-Dec-08 14:30N 38°41' W 009°41'1 1.7
2017-Dec-08 14:00N 38°41' W 009°41'45 1.2
2017-Dec-07 00:30N 38°01' W 009°14'4 7.7
2017-Dec-07 00:00N 38°00' W 009°10'4 7.9
2017-Dec-06 23:30N 37°59' W 009°05'4 8.7
2017-Dec-06 23:00N 37°57' W 008°60'4 8.0
2017-Dec-06 22:30N 37°56' W 008°55'2 4.5
2017-Dec-06 22:00N 37°57' W 008°52'0 0.0
2017-Dec-06 21:30N 37°57' W 008°52'0 0.0
2017-Dec-06 21:00N 37°57' W 008°52'  
Track history (hours):
 
Tides and Currents Weather Stations Pressure Air Temp Water Temp Dewpoint Dewpoint Depression Visibility Wind Speed Wind Dir Waves Ship Positions

Crustaceo

Last reported at 2017-Dec-15 15:50 UTC. Time now 2017-Dec-16 18:50 UTC.
Position N 38°07' W 009°23'.

Length 23 m.

Type: Fishing. MMSI: 204263000.

Date/timePositionNaut miles runAvg speedWind from/ knotsBaromVisibWave heightAir tempDewpointWater temp
2017-Dec-15 15:50N 38°07' W 009°23'1 3.1
2017-Dec-15 15:24N 38°06' W 009°24'17 1.2
2017-Dec-15 01:00N 38°00' W 009°04'4 7.8
2017-Dec-15 00:30N 37°59' W 008°60'9 1.5
2017-Dec-14 18:30N 37°59' W 009°11'4 8.3
2017-Dec-14 18:00N 37°59' W 009°16'12 0.2
2017-Dec-12 17:10N 38°11' W 009°19'1 8.2
2017-Dec-12 17:00N 38°12' W 009°18'4 8.1
2017-Dec-12 16:29N 38°16' W 009°15'4 7.8
2017-Dec-12 15:59N 38°19' W 009°12'8 7.6
2017-Dec-12 14:53N 38°26' W 009°06'1 1.3
2017-Dec-12 14:28N 38°26' W 009°07'0 0.0
2017-Dec-12 14:00N 38°26' W 009°07'0 0.0
2017-Dec-12 13:30N 38°26' W 009°07'0 0.0
2017-Dec-12 12:59N 38°26' W 009°07'0 0.0
2017-Dec-12 12:28N 38°26' W 009°07'0 0.0
2017-Dec-12 12:00N 38°26' W 009°07'0 0.0
2017-Dec-12 11:28N 38°26' W 009°07'0 0.0
2017-Dec-12 11:00N 38°26' W 009°07'0 0.0
2017-Dec-12 10:30N 38°26' W 009°07'0 0.0
2017-Dec-12 10:00N 38°26' W 009°07'0 0.0
2017-Dec-12 09:30N 38°26' W 009°07'0 0.0
2017-Dec-12 08:37N 38°26' W 009°07'0 0.0
2017-Dec-12 08:25N 38°26' W 009°07'0 0.0
2017-Dec-12 08:00N 38°26' W 009°07'0 0.0
2017-Dec-12 07:29N 38°26' W 009°07'0 0.0
2017-Dec-12 07:00N 38°26' W 009°07'0 0.0
2017-Dec-12 06:29N 38°26' W 009°07'0 0.0
2017-Dec-12 05:54N 38°26' W 009°07'0 0.0
2017-Dec-12 05:30N 38°26' W 009°07'0 0.0
2017-Dec-12 04:59N 38°26' W 009°07'0 0.0
2017-Dec-12 04:26N 38°26' W 009°07'0 0.0
2017-Dec-12 03:57N 38°26' W 009°07'0 0.0
2017-Dec-12 03:30N 38°26' W 009°07'0 0.0
2017-Dec-12 02:59N 38°26' W 009°07'0 0.0
2017-Dec-12 02:29N 38°26' W 009°07'0 0.0
2017-Dec-12 01:56N 38°26' W 009°07'0 0.0
2017-Dec-12 01:30N 38°26' W 009°07'0 0.0
2017-Dec-12 01:00N 38°26' W 009°07'0 0.0
2017-Dec-12 00:30N 38°26' W 009°07'0 0.0
2017-Dec-11 23:59N 38°26' W 009°07'0 0.0
2017-Dec-11 23:28N 38°26' W 009°07'0 0.0
2017-Dec-11 23:00N 38°26' W 009°07'0 0.0
2017-Dec-11 22:30N 38°26' W 009°07'0 0.0
2017-Dec-11 22:00N 38°26' W 009°07'0 0.0
2017-Dec-11 21:28N 38°26' W 009°07'0 0.0
2017-Dec-11 20:59N 38°26' W 009°07'0 0.0
2017-Dec-11 20:29N 38°26' W 009°07'0 0.0
2017-Dec-11 20:00N 38°26' W 009°07'0 0.0
2017-Dec-11 19:30N 38°26' W 009°07'0 0.0
2017-Dec-11 19:00N 38°26' W 009°07'0 0.0
2017-Dec-11 18:30N 38°26' W 009°07'0 0.0
2017-Dec-11 18:00N 38°26' W 009°07'0 0.0
2017-Dec-11 17:29N 38°26' W 009°07'0 0.0
2017-Dec-11 17:00N 38°26' W 009°07'0 0.0
2017-Dec-11 16:27N 38°26' W 009°07'0 0.0
2017-Dec-11 15:59N 38°26' W 009°07'0 0.0
2017-Dec-11 15:30N 38°26' W 009°07'0 0.0
2017-Dec-11 15:00N 38°26' W 009°07'0 0.0
2017-Dec-11 14:30N 38°26' W 009°07'0 0.0
2017-Dec-11 13:59N 38°26' W 009°07'0 0.0
2017-Dec-11 13:30N 38°26' W 009°07'0 0.0
2017-Dec-11 13:00N 38°26' W 009°07'0 0.0
2017-Dec-11 12:30N 38°26' W 009°07'0 0.0
2017-Dec-11 12:00N 38°26' W 009°07'0 0.0
2017-Dec-11 11:30N 38°26' W 009°07'0 0.0
2017-Dec-11 11:00N 38°26' W 009°07'0 0.0
2017-Dec-11 10:30N 38°26' W 009°07'0 0.0
2017-Dec-11 09:59N 38°26' W 009°07'0 0.0
2017-Dec-11 09:30N 38°26' W 009°07'0 0.0
2017-Dec-11 09:00N 38°26' W 009°07'0 0.0
2017-Dec-11 08:29N 38°26' W 009°07'0 0.0
2017-Dec-11 08:00N 38°26' W 009°07'0 0.0
2017-Dec-11 07:25N 38°26' W 009°07'0 0.0
2017-Dec-11 07:00N 38°26' W 009°07'0 0.0
2017-Dec-11 06:30N 38°26' W 009°07'0 0.0
2017-Dec-11 06:00N 38°26' W 009°07'0 0.0
2017-Dec-11 05:30N 38°26' W 009°07'0 0.0
2017-Dec-11 04:59N 38°26' W 009°07'0 0.0
2017-Dec-11 04:25N 38°26' W 009°07'0 0.0
2017-Dec-11 04:00N 38°26' W 009°07'0 0.0
2017-Dec-11 03:30N 38°26' W 009°07'0 0.0
2017-Dec-11 03:00N 38°26' W 009°07'0 0.0
2017-Dec-11 02:30N 38°26' W 009°07'0 0.0
2017-Dec-11 01:58N 38°26' W 009°07'0 0.0
2017-Dec-11 01:30N 38°26' W 009°07'0 0.0
2017-Dec-11 00:56N 38°26' W 009°07'0 0.0
2017-Dec-11 00:24N 38°26' W 009°07'0 0.0
2017-Dec-11 00:00N 38°26' W 009°07'0 0.0
2017-Dec-10 23:26N 38°26' W 009°07'0 0.0
2017-Dec-10 22:06N 38°26' W 009°07'0 0.0
2017-Dec-10 21:57N 38°26' W 009°07'0 0.0
2017-Dec-10 17:25N 38°26' W 009°07'0 0.0
2017-Dec-10 16:57N 38°26' W 009°07'0 0.0
2017-Dec-10 16:23N 38°26' W 009°07'0 0.0
2017-Dec-10 15:54N 38°26' W 009°07'0 0.0
2017-Dec-10 15:30N 38°26' W 009°07'0 0.0
2017-Dec-10 14:13N 38°26' W 009°07'0 0.5
2017-Dec-10 14:00N 38°26' W 009°07'0 0.0
2017-Dec-10 13:30N 38°26' W 009°07'0 0.4
2017-Dec-10 13:00N 38°26' W 009°07'7 7.8
2017-Dec-10 12:09N 38°21' W 009°11'2 8.1
2017-Dec-10 11:57N 38°19' W 009°12'6 7.9
2017-Dec-10 11:14N 38°15' W 009°16'2 7.7
2017-Dec-10 11:00N 38°13' W 009°17'16 0.4
2017-Dec-08 17:47N 38°24' W 009°33'2 7.2
2017-Dec-08 17:30N 38°25' W 009°34'4 8.5
2017-Dec-08 16:59N 38°29' W 009°36'4 8.6
2017-Dec-08 16:30N 38°33' W 009°38'3 5.1
2017-Dec-08 16:00N 38°35' W 009°40'1 1.9
2017-Dec-08 15:30N 38°36' W 009°39'2 3.2
2017-Dec-08 15:00N 38°38' W 009°39'3 5.8
2017-Dec-08 14:30N 38°41' W 009°41'1 1.7
2017-Dec-08 14:00N 38°41' W 009°41'45 1.2
2017-Dec-07 00:30N 38°01' W 009°14'4 7.7
2017-Dec-07 00:00N 38°00' W 009°10'4 7.9
2017-Dec-06 23:30N 37°59' W 009°05'4 8.7
2017-Dec-06 23:00N 37°57' W 008°60'4 8.0
2017-Dec-06 22:30N 37°56' W 008°55'2 4.5
2017-Dec-06 22:00N 37°57' W 008°52'0 0.0
2017-Dec-06 21:30N 37°57' W 008°52'0 0.0
2017-Dec-06 21:00N 37°57' W 008°52'  

Dump ship's entire track history